Time;durP1;ratioP1;P1;durP2;ratioP2;P2;SDS_P1;SDS_P2;PMS_P1;PMS_P2;Temp;Humidity;BMP_temperature;BMP_pressure;BME280_temperature;BME280_humidity;BME280_pressure;Samples;Min_cycle;Max_cycle;Signal;HPM_P1;HPM_P2
2023/04/01 11:38:44;;;;;;;4.38;1.58;;;9.90;99.90;;;;;;4813562;22;20133;-81
2023/04/01 11:41:50;;;;;;;5.18;1.42;;;10.00;99.90;;;;;;4952088;28;20054;-79
2023/04/01 11:44:47;;;;;;;7.80;1.60;;;10.00;99.90;;;;;;4971587;28;20047;-84
2023/04/01 11:47:42;;;;;;;8.73;1.67;;;10.10;99.90;;;;;;4971279;28;20055;-80
2023/04/01 11:50:49;;;;;;;6.25;1.60;;;10.10;99.90;;;;;;4970628;28;20055;-80
2023/04/01 11:53:41;;;;;;;7.82;1.70;;;10.10;99.90;;;;;;4971130;28;20508;-81
2023/04/01 11:56:42;;;;;;;5.35;1.60;;;10.10;99.90;;;;;;4970684;28;20571;-82
2023/04/01 11:59:58;;;;;;;5.97;1.30;;;10.10;99.90;;;;;;4971131;28;20047;-83
2023/04/01 12:03:08;;;;;;;7.57;1.73;;;10.00;99.90;;;;;;4971275;28;20043;-80
2023/04/01 12:06:01;;;;;;;12.40;1.73;;;10.00;99.90;;;;;;4973293;28;20047;-79
2023/04/01 12:09:09;;;;;;;5.60;1.50;;;10.00;99.90;;;;;;4972172;28;20061;-78
2023/04/01 12:12:31;;;;;;;5.80;1.58;;;10.00;99.90;;;;;;4971808;28;20075;-79
2023/04/01 12:15:24;;;;;;;5.38;1.45;;;9.90;99.90;;;;;;4962631;28;20054;-79
2023/04/01 12:18:23;;;;;;;5.82;1.27;;;10.00;99.90;;;;;;4973800;28;20524;-79
2023/04/01 12:21:25;;;;;;;9.30;1.70;;;10.00;99.90;;;;;;4954783;28;20051;-79
2023/04/01 12:24:36;;;;;;;7.97;1.60;;;9.90;99.90;;;;;;4963958;28;20038;-78
2023/04/01 12:27:45;;;;;;;4.82;1.20;;;10.00;99.90;;;;;;4970407;28;20077;-78
2023/04/01 12:30:57;;;;;;;4.40;1.05;;;10.00;99.90;;;;;;4967500;28;20047;-81
2023/04/01 12:34:13;;;;;;;4.30;1.50;;;10.10;99.90;;;;;;4970422;28;20055;-78
2023/04/01 12:37:06;;;;;;;;;;;10.10;99.90;;;;;;4971423;28;20055;-77
2023/04/01 12:40:19;;;;;;;7.95;1.83;;;10.00;99.90;;;;;;4984001;28;19988;-77
2023/04/01 12:43:26;;;;;;;7.65;1.55;;;10.00;99.90;;;;;;4989721;28;20513;-79
2023/04/01 12:46:37;;;;;;;12.25;1.70;;;10.10;99.90;;;;;;4990909;28;20105;-78
2023/04/01 12:49:35;;;;;;;7.43;1.88;;;10.10;99.90;;;;;;4974359;28;20086;-78
2023/04/01 12:52:37;;;;;;;7.25;1.98;;;10.20;99.90;;;;;;4990510;28;20145;-80
2023/04/01 12:55:41;;;;;;;6.90;2.00;;;10.10;99.90;;;;;;4990083;28;20051;-78
2023/04/01 12:58:40;;;;;;;6.72;1.88;;;10.10;99.90;;;;;;4990356;28;20402;-80
2023/04/01 13:01:32;;;;;;;4.30;1.23;;;10.10;99.90;;;;;;4990280;28;20055;-80
2023/04/01 13:04:31;;;;;;;6.10;1.20;;;10.00;99.90;;;;;;4993318;28;20047;-79
2023/04/01 13:07:44;;;;;;;4.63;1.08;;;10.00;99.90;;;;;;4989361;28;20047;-79
2023/04/01 13:11:08;;;;;;;5.32;1.20;;;9.90;99.90;;;;;;4991428;28;20086;-78
2023/04/01 13:14:05;;;;;;;4.72;1.58;;;9.90;99.90;;;;;;4991129;28;20046;-79
2023/04/01 13:17:12;;;;;;;2.72;1.40;;;10.00;99.90;;;;;;4973584;28;20462;-81
2023/04/01 13:20:10;;;;;;;8.05;2.08;;;9.90;99.90;;;;;;4990095;28;20046;-77
2023/04/01 13:23:15;;;;;;;9.10;1.95;;;10.00;99.90;;;;;;4988962;28;20820;-78
2023/04/01 13:26:34;;;;;;;21.63;3.60;;;10.00;99.90;;;;;;4975018;28;20053;-76
2023/04/01 13:29:27;;;;;;;4.65;1.60;;;10.10;99.90;;;;;;4958912;28;20065;-77
2023/04/01 13:32:32;;;;;;;7.72;1.60;;;10.10;99.90;;;;;;4990480;28;20057;-80
2023/04/01 13:35:24;;;;;;;5.27;1.67;;;10.10;99.90;;;;;;4989171;28;20050;-78
2023/04/01 13:38:50;;;;;;;4.15;2.00;;;10.00;99.90;;;;;;4992801;28;20057;-79
2023/04/01 13:41:47;;;;;;;4.07;1.40;;;9.90;99.90;;;;;;4993491;28;20137;-79
2023/04/01 13:44:36;;;;;;;4.68;1.15;;;9.90;99.90;;;;;;4993672;28;20057;-77
2023/04/01 13:47:25;;;;;;;5.28;1.45;;;9.90;99.90;;;;;;4993507;28;20062;-77
2023/04/01 13:50:24;;;;;;;3.90;1.00;;;9.80;99.90;;;;;;4992776;28;20088;-77
2023/04/01 13:53:22;;;;;;;4.43;1.73;;;9.70;99.90;;;;;;4994057;28;20497;-78
2023/04/01 13:56:20;;;;;;;6.80;1.70;;;9.70;99.90;;;;;;4993822;28;20054;-77
2023/04/01 13:59:12;;;;;;;4.68;1.80;;;9.60;99.90;;;;;;4990742;28;20086;-77
2023/04/01 14:02:33;;;;;;;18.50;3.67;;;9.60;99.90;;;;;;4994255;28;20053;-78
2023/04/01 14:05:40;;;;;;;10.15;1.92;;;9.60;99.90;;;;;;4974947;28;20081;-78
2023/04/01 14:08:31;;;;;;;8.50;2.05;;;9.50;99.90;;;;;;4992415;28;20096;-78
2023/04/01 14:11:40;;;;;;;14.23;2.80;;;9.50;99.90;;;;;;4974515;28;20065;-78
2023/04/01 14:15:07;;;;;;;13.57;2.78;;;9.50;99.90;;;;;;4964593;28;20058;-77
2023/04/01 14:18:08;;;;;;;14.50;3.17;;;9.50;99.90;;;;;;4966562;28;20145;-77
2023/04/01 14:21:19;;;;;;;9.95;2.78;;;9.40;99.90;;;;;;4994167;28;20047;-77
2023/04/01 14:24:30;;;;;;;13.02;2.83;;;9.30;99.90;;;;;;4992758;28;20137;-78
2023/04/01 14:27:35;;;;;;;13.77;3.67;;;9.30;99.90;;;;;;4993707;28;20098;-78
2023/04/01 14:30:59;;;;;;;12.63;3.92;;;9.20;99.90;;;;;;4974940;28;20446;-77
2023/04/01 14:34:06;;;;;;;12.48;3.15;;;9.10;99.90;;;;;;4995931;28;20046;-77
2023/04/01 14:37:12;;;;;;;9.90;2.88;;;9.00;99.90;;;;;;4992757;28;20445;-78
2023/04/01 14:40:28;;;;;;;17.05;3.92;;;9.00;99.90;;;;;;4965766;28;20422;-78
2023/04/01 14:43:44;;;;;;;7.70;2.63;;;9.00;99.90;;;;;;4972741;28;20051;-78
2023/04/01 14:47:07;;;;;;;11.98;3.75;;;8.90;99.90;;;;;;4955860;28;20302;-78
2023/04/01 14:50:04;;;;;;;11.18;3.55;;;8.90;99.90;;;;;;4974891;28;20055;-79
2023/04/01 14:53:11;;;;;;;13.77;4.00;;;8.90;99.90;;;;;;4974089;28;20059;-78
2023/04/01 14:56:02;;;;;;;14.85;4.18;;;8.90;99.90;;;;;;4972133;28;20136;-78
2023/04/01 14:58:57;;;;;;;19.48;5.20;;;8.80;99.90;;;;;;4965468;28;20497;-78
2023/04/01 15:02:05;;;;;;;13.32;3.83;;;8.80;99.90;;;;;;4972933;28;20161;-78
2023/04/01 15:05:13;;;;;;;12.70;3.47;;;8.70;99.90;;;;;;4975401;28;20050;-77
2023/04/01 15:08:17;;;;;;;12.18;3.45;;;8.70;99.90;;;;;;4972906;28;20050;-77
2023/04/01 15:11:12;;;;;;;9.50;3.42;;;8.70;99.90;;;;;;4972411;28;20086;-77
2023/04/01 15:14:15;;;;;;;15.73;3.78;;;8.60;99.90;;;;;;4972720;28;20047;-77
2023/04/01 15:17:36;;;;;;;10.52;5.30;;;8.60;99.90;;;;;;4956125;28;20141;-77
2023/04/01 15:20:33;;;;;;;11.93;3.45;;;8.50;99.90;;;;;;4971491;28;20049;-78
2023/04/01 15:23:42;;;;;;;9.75;4.53;;;8.50;99.90;;;;;;4973405;28;20779;-78
2023/04/01 15:26:43;;;;;;;11.93;4.20;;;8.50;99.90;;;;;;4972386;28;20043;-77
2023/04/01 15:29:44;;;;;;;12.60;4.60;;;8.40;99.90;;;;;;4972732;28;20058;-77
2023/04/01 15:32:47;;;;;;;12.82;4.10;;;8.40;99.90;;;;;;4972127;28;20399;-78
2023/04/01 15:36:04;;;;;;;12.43;3.55;;;8.30;99.90;;;;;;4973011;28;20058;-78
2023/04/01 15:38:52;;;;;;;12.93;4.32;;;8.30;99.90;;;;;;4973108;28;20085;-77
2023/04/01 15:41:53;;;;;;;10.57;3.28;;;8.30;99.90;;;;;;4993536;28;20137;-77
2023/04/01 15:44:52;;;;;;;7.20;3.28;;;8.30;99.90;;;;;;4990510;28;20168;-76
2023/04/01 15:47:46;;;;;;;9.63;3.90;;;8.20;99.90;;;;;;4990667;28;20387;-80
2023/04/01 15:50:58;;;;;;;14.55;4.20;;;8.20;99.90;;;;;;4990410;28;20529;-80
2023/04/01 15:54:02;;;;;;;15.20;4.10;;;8.20;99.90;;;;;;4963615;28;20069;-82
2023/04/01 15:57:07;;;;;;;11.68;3.42;;;8.10;99.90;;;;;;4990296;28;20387;-80
2023/04/01 16:00:26;;;;;;;12.77;4.50;;;8.10;99.90;;;;;;4972485;28;20050;-84
2023/04/01 16:03:28;;;;;;;10.95;3.92;;;8.10;99.90;;;;;;4989385;28;20073;-81
2023/04/01 16:06:42;;;;;;;19.55;6.43;;;8.10;99.90;;;;;;4971911;28;20161;-80
2023/04/01 16:09:49;;;;;;;13.80;4.90;;;8.00;99.90;;;;;;4990033;28;20069;-77
2023/04/01 16:12:43;;;;;;;9.73;4.85;;;8.00;99.90;;;;;;4989520;28;20050;-79
2023/04/01 16:15:41;;;;;;;16.10;4.70;;;7.90;99.90;;;;;;5008214;28;20054;-78
2023/04/01 16:18:53;;;;;;;18.17;4.82;;;7.80;99.90;;;;;;5010109;28;20064;-78
2023/04/01 16:21:51;;;;;;;12.23;4.40;;;7.80;99.90;;;;;;5008907;28;20054;-79
2023/04/01 16:25:07;;;;;;;22.50;4.78;;;7.70;99.90;;;;;;5008482;28;20520;-79
2023/04/01 16:28:19;;;;;;;10.37;4.00;;;7.70;99.90;;;;;;4986856;28;20050;-77
2023/04/01 16:31:33;;;;;;;12.18;4.32;;;7.70;99.90;;;;;;5008831;28;20565;-77
2023/04/01 16:34:37;;;;;;;12.90;4.97;;;7.70;99.90;;;;;;5008954;28;20498;-80
2023/04/01 16:37:40;;;;;;;10.07;3.83;;;7.70;99.90;;;;;;5009072;28;20521;-78
2023/04/01 16:40:42;;;;;;;10.77;4.10;;;7.70;99.90;;;;;;5013600;28;20062;-81
2023/04/01 16:43:38;;;;;;;11.57;4.70;;;7.60;99.90;;;;;;5009433;28;20042;-86
2023/04/01 16:46:43;;;;;;;13.75;4.15;;;7.60;99.90;;;;;;5008626;28;20562;-79
2023/04/01 16:49:56;;;;;;;14.20;4.05;;;7.50;99.90;;;;;;5007907;28;20585;-79
2023/04/01 16:53:07;;;;;;;12.85;4.22;;;7.50;99.90;;;;;;5008611;28;20046;-79
2023/04/01 16:56:17;;;;;;;13.65;4.07;;;7.50;99.90;;;;;;5007519;28;20085;-82
2023/04/01 16:59:13;;;;;;;11.65;4.55;;;7.40;99.90;;;;;;4998716;28;20053;-80
2023/04/01 17:01:59;;;;;;;11.63;3.70;;;7.40;99.90;;;;;;5007589;28;20073;-78
2023/04/01 17:05:03;;;;;;;10.90;3.55;;;7.40;99.90;;;;;;5009402;28;20183;-79
2023/04/01 17:08:05;;;;;;;13.40;3.55;;;7.40;99.90;;;;;;5008052;28;20064;-78
2023/04/01 17:11:01;;;;;;;10.07;3.85;;;7.40;99.90;;;;;;5009599;28;20089;-77
2023/04/01 17:13:59;;;;;;;14.75;3.95;;;7.30;99.90;;;;;;4994486;28;20053;-81
2023/04/01 17:17:14;;;;;;;13.63;4.45;;;7.40;99.90;;;;;;4996483;28;20053;-80
2023/04/01 17:20:19;;;;;;;15.10;5.03;;;7.30;99.90;;;;;;5014577;28;20046;-77
2023/04/01 17:23:31;;;;;;;9.32;4.25;;;7.30;99.90;;;;;;5011626;28;20189;-81
2023/04/01 17:26:42;;;;;;;9.85;3.90;;;7.30;99.90;;;;;;5011800;28;20053;-79
2023/04/01 17:30:11;;;;;;;17.20;4.40;;;7.20;99.90;;;;;;5011621;28;20068;-78
2023/04/01 17:33:06;;;;;;;8.25;3.88;;;7.20;99.90;;;;;;4993613;28;20578;-79
2023/04/01 17:36:11;;;;;;;11.10;4.65;;;7.20;99.90;;;;;;5011699;28;20559;-79
2023/04/01 17:39:18;;;;;;;11.05;4.43;;;7.10;99.90;;;;;;5001230;28;20050;-77
2023/04/01 17:42:04;;;;;;;12.18;4.95;;;7.10;99.90;;;;;;5012643;28;20173;-79
2023/04/01 17:45:08;;;;;;;21.15;6.55;;;7.10;99.90;;;;;;5011543;28;20103;-77
2023/04/01 17:48:18;;;;;;;15.55;4.25;;;7.10;99.90;;;;;;5012040;28;20049;-78
2023/04/01 17:51:09;;;;;;;11.63;3.95;;;7.10;99.90;;;;;;5011648;28;20085;-75
2023/04/01 17:54:37;;;;;;;21.08;5.45;;;7.10;99.90;;;;;;5010949;28;20057;-77
2023/04/01 17:57:52;;;;;;;13.38;3.80;;;7.10;99.90;;;;;;5017325;28;20049;-78
2023/04/01 18:00:58;;;;;;;12.35;4.78;;;7.10;99.90;;;;;;5009199;28;20039;-76
2023/04/01 18:04:28;;;;;;;10.15;4.03;;;7.00;99.90;;;;;;5006023;28;20073;-77
2023/04/01 18:07:40;;;;;;;14.68;6.03;;;7.00;99.90;;;;;;4950422;29;20107;-78
2023/04/01 18:10:35;;;;;;;13.73;4.00;;;6.90;99.90;;;;;;4988274;28;20136;-79
2023/04/01 18:13:27;;;;;;;12.65;3.97;;;7.00;99.90;;;;;;5011214;28;20501;-79
2023/04/01 18:16:51;;;;;;;17.30;4.97;;;6.90;99.90;;;;;;5016233;28;20049;-80
2023/04/01 18:20:12;;;;;;;15.77;4.55;;;6.90;99.90;;;;;;5012241;28;20497;-80
2023/04/01 18:23:10;;;;;;;13.32;4.38;;;6.90;99.90;;;;;;5009746;28;20120;-82
2023/04/01 18:26:13;;;;;;;21.52;5.18;;;6.90;99.90;;;;;;4979477;28;20053;-83
2023/04/01 18:29:13;;;;;;;10.18;3.65;;;6.80;99.90;;;;;;5010517;28;20058;-83
2023/04/01 18:32:40;;;;;;;12.05;4.15;;;6.80;99.90;;;;;;5018133;28;20056;-84
2023/04/01 18:36:00;;;;;;;11.38;3.65;;;6.80;99.90;;;;;;4991221;28;20057;-84
2023/04/01 18:39:35;;;;;;;12.60;4.75;;;6.80;99.90;;;;;;4998567;28;20077;-82
2023/04/01 18:42:27;;;;;;;14.40;4.85;;;6.80;99.90;;;;;;5012609;28;20067;-83
2023/04/01 18:45:43;;;;;;;8.73;3.42;;;6.80;99.90;;;;;;5012022;28;20038;-84
2023/04/01 18:49:13;;;;;;;11.82;4.47;;;6.80;99.90;;;;;;5015289;28;20394;-81
2023/04/01 18:52:10;;;;;;;11.70;4.07;;;6.80;99.90;;;;;;4998258;28;20053;-81
2023/04/01 18:55:02;;;;;;;17.70;4.97;;;6.70;99.90;;;;;;5012368;28;20045;-82
2023/04/01 18:58:21;;;;;;;22.08;5.03;;;6.70;99.90;;;;;;5012198;28;20129;-83
2023/04/01 19:01:18;;;;;;;13.35;4.60;;;6.70;99.90;;;;;;5011721;28;20131;-82
2023/04/01 19:04:44;;;;;;;17.48;5.63;;;6.70;99.90;;;;;;5015718;28;20056;-82
2023/04/01 19:07:36;;;;;;;8.93;3.95;;;6.70;99.90;;;;;;5017775;28;20057;-82
2023/04/01 19:10:41;;;;;;;13.55;5.15;;;6.70;99.90;;;;;;5015112;28;20045;-81
2023/04/01 19:14:04;;;;;;;18.75;4.47;;;6.60;99.90;;;;;;5011039;28;20504;-83
2023/04/01 19:16:56;;;;;;;15.52;4.60;;;6.70;99.90;;;;;;5011121;28;20041;-82
2023/04/01 19:19:45;;;;;;;22.58;6.63;;;6.60;99.90;;;;;;5014020;28;20053;-83
2023/04/01 19:22:48;;;;;;;29.52;6.47;;;6.60;99.90;;;;;;5015204;28;20474;-81
2023/04/01 19:25:39;;;;;;;15.73;3.80;;;6.60;99.90;;;;;;5013915;28;20108;-82
2023/04/01 19:28:44;;;;;;;12.52;3.42;;;6.60;99.90;;;;;;5013468;28;20053;-82
2023/04/01 19:31:55;;;;;;;10.02;3.47;;;6.60;99.90;;;;;;4997921;28;20057;-82
2023/04/01 19:35:21;;;;;;;21.27;4.50;;;6.50;99.90;;;;;;5013130;28;20053;-81
2023/04/01 19:38:23;;;;;;;13.07;3.42;;;6.50;99.90;;;;;;4989261;28;20129;-79
2023/04/01 19:41:19;;;;;;;11.98;3.50;;;6.50;99.90;;;;;;5011294;28;20584;-83
2023/04/01 19:44:28;;;;;;;16.15;3.70;;;6.50;99.90;;;;;;5011707;28;20133;-81
2023/04/01 19:47:35;;;;;;;11.68;3.38;;;6.50;99.90;;;;;;5011748;28;20498;-83
2023/04/01 19:50:36;;;;;;;13.68;4.13;;;6.50;99.90;;;;;;5014228;28;20081;-80
2023/04/01 19:53:43;;;;;;;15.98;3.15;;;6.50;99.90;;;;;;5011274;28;20058;-82
2023/04/01 19:56:45;;;;;;;13.38;3.67;;;6.40;99.90;;;;;;5013159;28;20057;-83
2023/04/01 19:59:58;;;;;;;18.65;4.72;;;6.40;99.90;;;;;;4994125;28;20058;-83
2023/04/01 20:03:22;;;;;;;12.98;3.38;;;6.40;99.90;;;;;;4999460;28;20053;-84
2023/04/01 20:06:20;;;;;;;10.13;3.38;;;6.40;99.90;;;;;;5015796;28;20133;-82
2023/04/01 20:09:43;;;;;;;14.02;3.00;;;6.40;99.90;;;;;;5013824;28;20112;-81
2023/04/01 20:12:51;;;;;;;16.65;3.50;;;6.40;99.90;;;;;;5010231;28;20144;-83
2023/04/01 20:15:45;;;;;;;10.00;3.17;;;6.30;99.90;;;;;;5009390;28;20063;-80
2023/04/01 20:18:55;;;;;;;13.30;3.78;;;6.30;99.90;;;;;;5010709;28;20409;-81
2023/04/01 20:21:45;;;;;;;8.40;3.15;;;6.30;99.90;;;;;;5013489;28;20064;-80
2023/04/01 20:24:41;;;;;;;14.85;2.90;;;6.30;99.90;;;;;;5010732;28;20052;-82
2023/04/01 20:27:31;;;;;;;;;;;6.30;99.90;;;;;;4981126;28;20140;-82
2023/04/01 20:30:36;;;;;;;8.85;2.95;;;6.20;99.90;;;;;;4992216;28;19929;-80
2023/04/01 20:33:48;;;;;;;11.50;3.13;;;6.20;99.90;;;;;;4996140;28;20054;-80
2023/04/01 20:37:00;;;;;;;20.77;4.55;;;6.20;99.90;;;;;;5013555;28;20052;-81
2023/04/01 20:39:57;;;;;;;10.52;3.17;;;6.10;99.90;;;;;;5011389;28;20058;-81
2023/04/01 20:43:03;;;;;;;9.27;2.65;;;6.20;99.90;;;;;;5010565;28;20505;-79
2023/04/01 20:45:55;;;;;;;12.05;3.13;;;6.20;99.90;;;;;;5015031;28;20402;-82
2023/04/01 20:49:14;;;;;;;12.05;3.10;;;6.10;99.90;;;;;;5015282;28;20104;-82
2023/04/01 20:52:20;;;;;;;11.30;3.00;;;6.10;99.90;;;;;;5014956;28;20061;-85
2023/04/01 20:55:12;;;;;;;11.93;2.78;;;6.10;99.90;;;;;;5000469;28;20049;-80
2023/04/01 20:58:17;;;;;;;14.82;3.50;;;6.10;99.90;;;;;;5017276;28;20084;-80
2023/04/01 21:01:22;;;;;;;14.30;2.92;;;6.20;99.90;;;;;;5013111;28;20730;-81
2023/04/01 21:04:14;;;;;;;11.93;4.63;;;6.10;99.90;;;;;;5016472;28;20517;-81
2023/04/01 21:07:20;;;;;;;14.88;3.38;;;6.10;99.90;;;;;;5013819;28;20556;-82
2023/04/01 21:10:27;;;;;;;10.82;2.30;;;6.10;99.90;;;;;;5015579;28;20049;-83
2023/04/01 21:13:39;;;;;;;13.52;3.55;;;6.10;99.90;;;;;;4997227;28;20054;-81
2023/04/01 21:17:04;;;;;;;12.48;3.08;;;6.10;99.90;;;;;;5013134;28;20089;-82
2023/04/01 21:20:18;;;;;;;10.90;3.35;;;6.10;99.90;;;;;;4991532;28;20089;-80
2023/04/01 21:23:41;;;;;;;11.52;3.70;;;6.10;99.90;;;;;;4996291;28;20049;-79
2023/04/01 21:26:52;;;;;;;13.77;2.47;;;6.10;99.90;;;;;;5016148;28;20068;-81
2023/04/01 21:29:57;;;;;;;11.40;3.00;;;6.00;99.90;;;;;;5019016;28;20397;-84
2023/04/01 21:32:43;;;;;;;7.55;2.13;;;6.00;99.90;;;;;;5013809;28;20448;-81
2023/04/01 21:35:50;;;;;;;9.73;3.28;;;5.90;99.90;;;;;;5012592;28;20074;-81
2023/04/01 21:38:52;;;;;;;14.50;2.88;;;6.00;99.90;;;;;;4999022;28;20045;-81
2023/04/01 21:41:57;;;;;;;13.80;3.20;;;5.90;99.90;;;;;;5015363;28;20070;-81
2023/04/01 21:45:02;;;;;;;9.05;2.42;;;5.90;99.90;;;;;;5015584;28;20050;-83
2023/04/01 21:48:34;;;;;;;15.10;2.97;;;5.80;99.90;;;;;;5014741;28;20046;-83
2023/04/01 21:51:23;;;;;;;9.63;2.05;;;5.80;99.90;;;;;;4992737;28;20049;-82
2023/04/01 21:54:46;;;;;;;9.38;2.30;;;5.70;99.90;;;;;;5014075;28;20046;-80
2023/04/01 21:57:57;;;;;;;7.43;2.38;;;5.70;99.90;;;;;;5012265;28;20042;-81
2023/04/01 22:01:12;;;;;;;13.63;2.88;;;5.70;99.90;;;;;;5018342;28;20054;-82
2023/04/01 22:04:01;;;;;;;10.05;2.42;;;5.60;99.90;;;;;;5012418;28;20413;-83
2023/04/01 22:07:14;;;;;;;10.18;2.90;;;5.60;99.90;;;;;;5012579;28;20050;-84
2023/04/01 22:10:25;;;;;;;10.13;2.25;;;5.60;99.90;;;;;;4997866;28;20077;-83
2023/04/01 22:13:26;;;;;;;14.00;3.63;;;5.60;99.90;;;;;;5013138;28;20141;-84
2023/04/01 22:16:31;;;;;;;10.38;2.33;;;5.60;99.90;;;;;;5014485;28;20191;-83
2023/04/01 22:19:34;;;;;;;;;;;5.60;99.90;;;;;;4998427;28;20054;-83
2023/04/01 22:22:30;;;;;;;9.88;2.42;;;5.50;99.90;;;;;;4998334;28;20225;-81
2023/04/01 22:25:37;;;;;;;11.60;3.20;;;5.50;99.90;;;;;;5015486;28;20413;-81
2023/04/01 22:28:35;;;;;;;15.60;2.65;;;5.50;99.90;;;;;;5012425;28;20560;-83
2023/04/01 22:31:46;;;;;;;7.95;2.10;;;5.40;99.90;;;;;;4981671;28;20532;-79
2023/04/01 22:34:45;;;;;;;7.47;2.42;;;5.40;99.90;;;;;;5016676;28;20133;-84
2023/04/01 22:37:55;;;;;;;10.23;1.92;;;5.40;99.90;;;;;;4995811;28;20138;-83
2023/04/01 22:41:13;;;;;;;9.32;2.85;;;5.30;99.90;;;;;;5011361;28;20181;-83
2023/04/01 22:43:59;;;;;;;12.27;2.47;;;5.30;99.90;;;;;;5011786;28;20528;-79
2023/04/01 22:46:57;;;;;;;9.98;3.08;;;5.30;99.90;;;;;;5012619;28;20042;-84
2023/04/01 22:49:53;;;;;;;9.50;3.00;;;5.20;99.90;;;;;;5016784;28;20077;-82
2023/04/01 22:52:46;;;;;;;10.70;2.20;;;5.20;99.90;;;;;;5012432;28;20046;-83
2023/04/01 22:55:37;;;;;;;10.00;2.65;;;5.20;99.90;;;;;;5011758;28;20489;-84
2023/04/01 22:58:34;;;;;;;7.00;2.65;;;5.10;99.90;;;;;;5011562;28;20520;-81
2023/04/01 23:01:27;;;;;;;8.27;2.13;;;5.00;99.90;;;;;;5011933;28;20042;-81
2023/04/01 23:04:17;;;;;;;9.63;2.50;;;4.90;99.90;;;;;;5016423;28;20046;-83
2023/04/01 23:07:20;;;;;;;6.35;2.08;;;4.90;99.90;;;;;;4981632;28;20069;-83
2023/04/01 23:10:16;;;;;;;8.75;2.30;;;4.80;99.90;;;;;;4999887;28;20057;-83
2023/04/01 23:13:03;;;;;;;11.68;2.58;;;4.80;99.90;;;;;;5011636;28;20057;-81
2023/04/01 23:15:53;;;;;;;8.50;2.42;;;4.70;99.90;;;;;;4994243;28;20046;-81
2023/04/01 23:18:55;;;;;;;12.07;3.88;;;4.70;99.90;;;;;;5017171;28;20405;-81
2023/04/01 23:22:10;;;;;;;9.10;2.00;;;4.60;99.90;;;;;;5011459;28;20156;-80
2023/04/01 23:25:24;;;;;;;11.25;4.25;;;4.60;99.90;;;;;;5012249;28;20489;-80
2023/04/01 23:28:32;;;;;;;9.32;2.38;;;4.50;99.90;;;;;;5010760;28;20069;-81
2023/04/01 23:31:27;;;;;;;7.93;2.58;;;4.50;99.90;;;;;;5001894;28;20046;-85
2023/04/01 23:34:13;;;;;;;11.98;3.47;;;4.40;99.90;;;;;;5012645;28;20045;-84
2023/04/01 23:37:08;;;;;;;8.77;3.25;;;4.40;99.90;;;;;;4999552;28;20054;-85
2023/04/01 23:39:57;;;;;;;10.73;2.22;;;4.30;99.90;;;;;;4995739;28;20061;-82
2023/04/01 23:42:43;;;;;;;8.13;2.97;;;4.30;99.90;;;;;;5011742;28;20096;-84
2023/04/01 23:45:30;;;;;;;6.75;2.53;;;4.30;99.90;;;;;;5011257;28;20061;-84
2023/04/01 23:48:17;;;;;;;11.90;3.13;;;4.20;99.90;;;;;;4998027;28;20057;-80
2023/04/01 23:51:10;;;;;;;6.35;2.05;;;4.20;99.90;;;;;;5011074;28;20054;-82
2023/04/01 23:54:03;;;;;;;13.63;3.58;;;4.10;99.90;;;;;;5010577;28;20056;-80
